createdAt,value
2023-02-11T00:02:48.184Z,100403.60
2023-02-11T00:06:05.393Z,100400.80
2023-02-11T00:09:14.294Z,100400.80
2023-02-11T00:12:22.945Z,100398.80
2023-02-11T00:15:31.137Z,100400.60
2023-02-11T00:18:39.692Z,100398.40
2023-02-11T00:21:47.768Z,100394.20
2023-02-11T00:24:57.319Z,100389.80
2023-02-11T00:28:05.608Z,100388.20
2023-02-11T00:31:14.411Z,100388.20
2023-02-11T00:34:22.610Z,100382.40
2023-02-11T00:37:30.896Z,100383.60
2023-02-11T00:40:39.271Z,100377.20
2023-02-11T00:43:47.679Z,100383.20
2023-02-11T00:46:55.792Z,100381.60
2023-02-11T00:50:05.363Z,100381.00
2023-02-11T00:53:14.082Z,100372.80
2023-02-11T00:56:22.457Z,100369.80
2023-02-11T00:59:30.517Z,100364.60
2023-02-11T01:02:38.805Z,100363.40
2023-02-11T01:05:46.761Z,100356.00
2023-02-11T01:08:54.824Z,100355.40
2023-02-11T01:12:03.033Z,100347.80
2023-02-11T01:15:18.341Z,100350.40
2023-02-11T01:18:26.945Z,100343.40
2023-02-11T01:21:35.162Z,100339.60
2023-02-11T01:24:43.191Z,100337.00
2023-02-11T01:27:51.105Z,100337.00
2023-02-11T01:31:01.250Z,100329.80
2023-02-11T01:34:09.316Z,100319.40
2023-02-11T01:37:18.666Z,100319.00
2023-02-11T01:40:27.395Z,100327.80
2023-02-11T01:43:38.885Z,100319.60
2023-02-11T01:46:46.924Z,100323.40
2023-02-11T01:50:03.055Z,100320.40
2023-02-11T01:53:25.707Z,100322.20
2023-02-11T01:56:54.635Z,100326.60
2023-02-11T02:00:11.357Z,100328.40
2023-02-11T02:03:23.878Z,100318.40
2023-02-11T02:06:39.786Z,100317.80
2023-02-11T02:09:54.323Z,100312.60
2023-02-11T02:13:03.624Z,100317.00
2023-02-11T02:16:16.663Z,100315.00
2023-02-11T02:20:12.711Z,100310.60
2023-02-11T02:24:08.673Z,100312.80
2023-02-11T02:27:33.672Z,100315.00
2023-02-11T02:31:29.725Z,100316.00
2023-02-11T02:34:51.422Z,100312.00
2023-02-11T02:38:08.201Z,100312.80
2023-02-11T02:41:20.296Z,100308.40
2023-02-11T02:44:29.472Z,100304.80
2023-02-11T02:47:37.822Z,100304.40
2023-02-11T02:50:46.509Z,100301.00
2023-02-11T02:54:09.546Z,100298.60
2023-02-11T02:57:34.910Z,100290.80
2023-02-11T03:00:59.818Z,100286.60
2023-02-11T03:04:19.596Z,100284.80
2023-02-11T03:07:33.853Z,100280.20
2023-02-11T03:10:46.570Z,100272.60
2023-02-11T03:13:55.948Z,100266.80
2023-02-11T03:17:09.928Z,100259.80
2023-02-11T03:20:23.422Z,100267.40
2023-02-11T03:23:37.933Z,100267.60
2023-02-11T03:26:53.321Z,100272.40
2023-02-11T03:30:12.507Z,100264.20
2023-02-11T03:33:27.927Z,100255.20
2023-02-11T03:36:47.650Z,100252.00
2023-02-11T03:39:58.860Z,100250.00
2023-02-11T03:43:17.336Z,100248.00
2023-02-11T03:46:32.641Z,100243.60
2023-02-11T03:49:44.077Z,100240.20
2023-02-11T03:52:54.135Z,100230.80
2023-02-11T03:56:06.697Z,100222.80
2023-02-11T03:59:14.745Z,100216.80
2023-02-11T04:02:23.679Z,100211.60
2023-02-11T04:05:31.709Z,100208.40
2023-02-11T04:08:39.878Z,100201.20
2023-02-11T04:11:51.532Z,100196.60
2023-02-11T04:14:59.833Z,100193.60
2023-02-11T04:18:08.339Z,100186.80
2023-02-11T04:21:16.464Z,100188.80
2023-02-11T04:24:24.454Z,100191.20
2023-02-11T04:27:32.730Z,100191.60
2023-02-11T04:30:40.683Z,100194.00
2023-02-11T04:33:48.564Z,100196.60
2023-02-11T04:36:56.587Z,100192.80
2023-02-11T04:40:05.423Z,100189.80
2023-02-11T04:43:13.829Z,100183.60
2023-02-11T04:46:21.799Z,100190.60
2023-02-11T04:49:29.893Z,100185.00
2023-02-11T04:52:38.023Z,100184.20
2023-02-11T04:55:45.761Z,100186.60
2023-02-11T04:58:53.706Z,100187.40
2023-02-11T05:02:01.759Z,100190.20
2023-02-11T05:05:10.874Z,100186.60
2023-02-11T05:08:18.855Z,100188.60
2023-02-11T05:11:28.453Z,100180.00
2023-02-11T05:14:35.049Z,100178.20
2023-02-11T05:17:42.970Z,100177.60
2023-02-11T05:20:50.885Z,100176.60
2023-02-11T05:23:58.770Z,100185.40
2023-02-11T05:27:06.848Z,100183.80
2023-02-11T05:30:16.231Z,100180.60
2023-02-11T05:33:24.711Z,100176.20
2023-02-11T05:36:33.517Z,100170.20
2023-02-11T05:39:41.683Z,100172.80
2023-02-11T05:42:49.511Z,100165.80
2023-02-11T05:45:58.284Z,100175.40
2023-02-11T05:49:06.306Z,100171.40
2023-02-11T05:52:14.221Z,100168.60
2023-02-11T05:55:22.306Z,100175.60
2023-02-11T05:58:30.735Z,100183.40
2023-02-11T06:01:39.272Z,100176.60
2023-02-11T06:04:47.437Z,100175.20
2023-02-11T06:07:55.688Z,100167.80
2023-02-11T06:11:03.865Z,100167.40
2023-02-11T06:14:12.224Z,100164.20
2023-02-11T06:17:20.241Z,100155.00
2023-02-11T06:20:28.551Z,100157.40
2023-02-11T06:23:37.038Z,100154.60
2023-02-11T06:26:44.978Z,100155.20
2023-02-11T06:29:53.650Z,100158.20
2023-02-11T06:33:01.823Z,100158.20
2023-02-11T06:36:19.717Z,100155.80
2023-02-11T06:39:27.747Z,100151.00
2023-02-11T06:42:38.810Z,100145.40
2023-02-11T06:45:46.929Z,100156.20
2023-02-11T06:48:54.826Z,100148.60
2023-02-11T06:52:03.539Z,100147.20
2023-02-11T06:55:12.304Z,100148.20
2023-02-11T06:58:20.504Z,100150.00
2023-02-11T07:01:30.431Z,100143.60
2023-02-11T07:04:38.440Z,100144.80
2023-02-11T07:07:46.432Z,100145.80
2023-02-11T07:10:54.298Z,100147.40
2023-02-11T07:14:08.462Z,100151.00
2023-02-11T07:17:16.841Z,100149.00
2023-02-11T07:20:25.600Z,100150.20
2023-02-11T07:23:33.635Z,100150.00
2023-02-11T07:26:42.220Z,100145.60
2023-02-11T07:29:50.689Z,100141.20
2023-02-11T07:32:59.438Z,100137.00
2023-02-11T07:36:12.156Z,100140.20
2023-02-11T07:39:22.182Z,100138.20
2023-02-11T07:42:30.495Z,100139.60
2023-02-11T07:45:41.882Z,100133.20
2023-02-11T07:48:50.359Z,100129.00
2023-02-11T07:51:58.641Z,100136.20
2023-02-11T07:55:07.431Z,100130.80
2023-02-11T07:58:15.802Z,100118.60
2023-02-11T08:01:28.957Z,100122.80
2023-02-11T08:04:37.228Z,100120.40
2023-02-11T08:07:45.060Z,100115.00
2023-02-11T08:10:53.428Z,100115.00
2023-02-11T08:14:01.944Z,100116.40
2023-02-11T08:17:09.933Z,100121.40
2023-02-11T08:20:18.316Z,100118.00
2023-02-11T08:23:26.603Z,100113.60
2023-02-11T08:26:36.461Z,100123.20
2023-02-11T08:29:44.469Z,100123.40
2023-02-11T08:32:52.865Z,100128.80
2023-02-11T08:36:01.994Z,100121.00
2023-02-11T08:39:20.120Z,100121.60
2023-02-11T08:42:28.625Z,100123.60
2023-02-11T08:45:36.888Z,100116.00
2023-02-11T08:48:45.461Z,100114.40
2023-02-11T08:51:55.668Z,100115.80
2023-02-11T08:55:03.795Z,100122.40
2023-02-11T08:58:11.985Z,100119.80
2023-02-11T09:01:23.258Z,100115.00
2023-02-11T09:04:31.720Z,100110.00
2023-02-11T09:07:40.215Z,100105.20
2023-02-11T09:10:49.310Z,100102.60
2023-02-11T09:13:58.284Z,100101.80
2023-02-11T09:17:06.434Z,100107.00
2023-02-11T09:20:19.856Z,100101.60
2023-02-11T09:23:31.493Z,100097.20
2023-02-11T09:26:43.939Z,100097.40
2023-02-11T09:29:52.594Z,100100.60
2023-02-11T09:33:00.687Z,100092.00
2023-02-11T09:36:10.666Z,100089.00
2023-02-11T09:39:23.799Z,100091.20
2023-02-11T09:42:47.567Z,100093.20
2023-02-11T09:45:58.535Z,100092.40
2023-02-11T09:49:08.857Z,100093.60
2023-02-11T09:52:37.259Z,100093.60
2023-02-11T09:55:49.540Z,100086.80
2023-02-11T09:58:57.880Z,100085.20
2023-02-11T10:02:18.909Z,100081.40
2023-02-11T10:05:45.813Z,100073.20
2023-02-11T10:09:10.284Z,100078.20
2023-02-11T10:12:34.042Z,100070.20
2023-02-11T10:15:53.512Z,100068.40
2023-02-11T10:19:24.464Z,100067.80
2023-02-11T10:22:41.348Z,100061.20
2023-02-11T10:25:54.756Z,100047.40
2023-02-11T10:29:13.427Z,100038.00
2023-02-11T10:32:36.614Z,100039.80
2023-02-11T10:35:46.135Z,100033.00
2023-02-11T10:38:54.446Z,100029.80
2023-02-11T10:42:10.886Z,100027.60
2023-02-11T10:45:37.716Z,100020.40
2023-02-11T10:48:49.700Z,100019.20
2023-02-11T10:52:21.819Z,100010.60
2023-02-11T10:55:32.437Z,100014.60
2023-02-11T10:58:48.225Z,100017.20
2023-02-11T11:02:01.901Z,100009.80
2023-02-11T11:05:19.881Z,100001.40
2023-02-11T11:08:45.433Z,99998.00
2023-02-11T11:11:58.449Z,99984.80
2023-02-11T11:15:22.135Z,99975.40
2023-02-11T11:18:30.487Z,99975.20
2023-02-11T11:21:44.903Z,99977.20
2023-02-11T11:24:55.369Z,99980.20
2023-02-11T11:28:05.550Z,99962.00
2023-02-11T11:31:24.412Z,99958.20
2023-02-11T11:34:37.328Z,99945.20
2023-02-11T11:37:47.117Z,99944.80
2023-02-11T11:41:21.185Z,99937.00
2023-02-11T11:44:33.503Z,99936.80
2023-02-11T11:47:49.623Z,99937.00
2023-02-11T11:51:01.520Z,99933.00
2023-02-11T11:54:18.906Z,99940.00
2023-02-11T11:57:31.460Z,99942.80
2023-02-11T12:00:52.051Z,99927.20
2023-02-11T12:04:40.186Z,99910.00
2023-02-11T12:08:04.421Z,99910.40
2023-02-11T12:11:24.302Z,99903.20
2023-02-11T12:14:47.624Z,99896.00
2023-02-11T12:18:27.222Z,99886.80
2023-02-11T12:21:48.305Z,99873.00
2023-02-11T12:25:21.728Z,99868.00
2023-02-11T12:28:43.424Z,99863.80
2023-02-11T12:32:08.262Z,99860.20
2023-02-11T12:36:02.529Z,99863.20
2023-02-11T12:39:27.698Z,99856.00
2023-02-11T12:43:19.320Z,99846.00
2023-02-11T12:46:51.661Z,99849.40
2023-02-11T12:50:16.788Z,99839.20
2023-02-11T12:53:50.223Z,99825.20
2023-02-11T12:57:08.924Z,99832.60
2023-02-11T13:00:24.992Z,99824.40
2023-02-11T13:03:40.539Z,99813.80
2023-02-11T13:06:57.322Z,99808.80
2023-02-11T13:10:17.517Z,99801.80
2023-02-11T13:13:31.252Z,99797.20
2023-02-11T13:16:43.234Z,99798.00
2023-02-11T13:20:01.020Z,99795.40
2023-02-11T13:23:23.459Z,99800.40
2023-02-11T13:26:40.927Z,99792.00
2023-02-11T13:30:34.761Z,99786.80
2023-02-11T13:33:46.081Z,99778.20
2023-02-11T13:36:59.551Z,99781.20
2023-02-11T13:40:24.529Z,99777.60
2023-02-11T13:43:36.163Z,99782.80
2023-02-11T13:46:59.761Z,99781.80
2023-02-11T13:50:23.337Z,99779.60
2023-02-11T13:53:44.835Z,99777.80
2023-02-11T13:57:42.156Z,99774.20
2023-02-11T14:00:53.231Z,99759.60
2023-02-11T14:04:42.987Z,99756.20
2023-02-11T14:08:41.422Z,99756.00
2023-02-11T14:11:57.563Z,99759.80
2023-02-11T14:15:47.752Z,99771.40
2023-02-11T14:19:06.566Z,99782.20
2023-02-11T14:22:23.918Z,99792.60
2023-02-11T14:25:32.686Z,99799.00
2023-02-11T14:28:44.912Z,99789.80
2023-02-11T14:32:06.786Z,99788.60
2023-02-11T14:35:22.739Z,99795.40
2023-02-11T14:38:46.346Z,99794.00
2023-02-11T14:41:55.720Z,99781.20
2023-02-11T14:45:12.653Z,99784.40
2023-02-11T14:48:23.960Z,99781.20
2023-02-11T14:51:36.630Z,99772.80
2023-02-11T14:54:49.907Z,99771.80
2023-02-11T14:58:16.730Z,99770.00
2023-02-11T15:01:36.688Z,99771.80
2023-02-11T15:04:44.296Z,99765.40
2023-02-11T15:07:57.345Z,99758.80
2023-02-11T15:11:13.172Z,99758.80
2023-02-11T15:14:34.563Z,99768.00
2023-02-11T15:17:43.509Z,99763.00
2023-02-11T15:20:53.319Z,99750.00
2023-02-11T15:24:06.522Z,99756.40
2023-02-11T15:27:18.606Z,99761.40
2023-02-11T15:30:35.126Z,99749.20
2023-02-11T15:33:43.300Z,99746.00
2023-02-11T15:36:51.370Z,99741.60
2023-02-11T15:40:13.043Z,99736.60
2023-02-11T15:43:21.256Z,99737.40
2023-02-11T15:46:41.247Z,99731.20
2023-02-11T15:49:51.709Z,99735.40
2023-02-11T15:53:13.437Z,99736.20
2023-02-11T15:56:26.878Z,99730.80
2023-02-11T15:59:41.669Z,99723.80
2023-02-11T16:02:51.313Z,99721.40
2023-02-11T16:06:15.991Z,99721.60
2023-02-11T16:09:37.274Z,99717.80
2023-02-11T16:12:54.497Z,99713.60
2023-02-11T16:16:06.365Z,99714.00
2023-02-11T16:19:25.350Z,99710.60
2023-02-11T16:22:38.323Z,99703.40
2023-02-11T16:25:46.849Z,99700.20
2023-02-11T16:28:55.341Z,99712.60
2023-02-11T16:32:17.911Z,99714.00
2023-02-11T16:35:26.087Z,99710.40
2023-02-11T16:38:35.152Z,99706.20
2023-02-11T16:41:43.568Z,99703.40
2023-02-11T16:44:52.411Z,99705.20
2023-02-11T16:48:02.470Z,99698.60
2023-02-11T16:51:13.864Z,99690.80
2023-02-11T16:54:22.561Z,99686.20
2023-02-11T16:57:31.173Z,99695.00
2023-02-11T17:00:39.228Z,99707.80
2023-02-11T17:03:50.241Z,99710.20
2023-02-11T17:06:58.827Z,99714.40
2023-02-11T17:10:07.769Z,99716.00
2023-02-11T17:13:15.923Z,99718.80
2023-02-11T17:16:27.892Z,99718.40
2023-02-11T17:19:35.941Z,99719.20
2023-02-11T17:22:44.120Z,99716.20
2023-02-11T17:26:00.064Z,99711.00
2023-02-11T17:29:10.966Z,99719.00
2023-02-11T17:32:19.274Z,99725.00
2023-02-11T17:35:27.570Z,99728.40
2023-02-11T17:38:35.519Z,99725.40
2023-02-11T17:41:44.156Z,99732.20
2023-02-11T17:44:52.194Z,99721.40
2023-02-11T17:48:00.127Z,99729.20
2023-02-11T17:51:22.205Z,99727.40
2023-02-11T17:54:30.506Z,99715.60
2023-02-11T17:57:38.364Z,99708.40
2023-02-11T18:00:47.155Z,99704.60
2023-02-11T18:03:54.926Z,99703.00
2023-02-11T18:07:03.300Z,99703.20
2023-02-11T18:10:14.204Z,99695.60
2023-02-11T18:13:22.685Z,99695.20
2023-02-11T18:16:31.438Z,99697.60
2023-02-11T18:19:39.548Z,99683.00
2023-02-11T18:22:47.491Z,99672.80
2023-02-11T18:25:55.648Z,99672.40
2023-02-11T18:29:04.458Z,99679.20
2023-02-11T18:32:12.571Z,99681.80
2023-02-11T18:35:21.715Z,99678.80
2023-02-11T18:38:29.784Z,99678.60
2023-02-11T18:41:40.399Z,99683.20
2023-02-11T18:44:48.716Z,99682.60
2023-02-11T18:47:56.667Z,99681.40
2023-02-11T18:51:09.409Z,99673.00
2023-02-11T18:54:17.690Z,99676.60
2023-02-11T18:57:26.174Z,99684.00
2023-02-11T19:00:35.918Z,99684.60
2023-02-11T19:03:44.168Z,99683.80
2023-02-11T19:06:53.579Z,99692.40
2023-02-11T19:10:01.877Z,99690.20
2023-02-11T19:13:10.357Z,99692.80
2023-02-11T19:16:19.893Z,99696.60
2023-02-11T19:19:31.212Z,99698.00
2023-02-11T19:22:39.266Z,99693.00
2023-02-11T19:25:52.908Z,99696.20
2023-02-11T19:29:03.143Z,99689.60
2023-02-11T19:32:11.696Z,99688.80
2023-02-11T19:35:19.872Z,99683.80
2023-02-11T19:38:28.417Z,99683.40
2023-02-11T19:41:37.835Z,99693.20
2023-02-11T19:44:47.278Z,99689.00
2023-02-11T19:48:00.249Z,99692.80
2023-02-11T19:51:14.227Z,99694.20
2023-02-11T19:54:23.259Z,99692.20
2023-02-11T19:57:31.484Z,99694.40
2023-02-11T20:00:39.551Z,99679.00
2023-02-11T20:03:50.095Z,99681.80
2023-02-11T20:06:58.223Z,99680.80
2023-02-11T20:10:07.504Z,99685.20
2023-02-11T20:13:15.707Z,99690.40
2023-02-11T20:16:44.581Z,99682.40
2023-02-11T20:19:55.372Z,99681.40
2023-02-11T20:23:03.596Z,99687.60
2023-02-11T20:26:15.656Z,99687.60
2023-02-11T20:29:24.897Z,99690.40
2023-02-11T20:32:38.081Z,99684.80
2023-02-11T20:35:46.392Z,99684.80
2023-02-11T20:38:55.335Z,99688.20
2023-02-11T20:42:03.477Z,99689.20
2023-02-11T20:45:12.349Z,99689.00
2023-02-11T20:48:20.204Z,99688.60
2023-02-11T20:51:31.673Z,99690.20
2023-02-11T20:54:39.786Z,99692.80
2023-02-11T20:57:47.871Z,99696.80
2023-02-11T21:00:55.872Z,99696.40
2023-02-11T21:04:06.746Z,99702.00
2023-02-11T21:07:14.936Z,99707.80
2023-02-11T21:10:23.609Z,99707.00
2023-02-11T21:13:32.097Z,99711.00
2023-02-11T21:16:40.209Z,99709.20
2023-02-11T21:19:48.342Z,99707.80
2023-02-11T21:22:56.224Z,99704.00
2023-02-11T21:26:04.393Z,99712.60
2023-02-11T21:29:13.337Z,99717.20
2023-02-11T21:32:21.283Z,99724.00
2023-02-11T21:35:29.601Z,99723.80
2023-02-11T21:38:37.453Z,99728.00
2023-02-11T21:41:45.524Z,99727.80
2023-02-11T21:44:53.515Z,99732.20
2023-02-11T21:48:02.183Z,99746.80
2023-02-11T21:51:14.281Z,99738.60
2023-02-11T21:54:24.264Z,99742.00
2023-02-11T21:57:32.592Z,99742.20
2023-02-11T22:00:41.438Z,99735.40
2023-02-11T22:03:50.311Z,99745.20
2023-02-11T22:06:58.505Z,99739.60
2023-02-11T22:10:07.690Z,99745.00
2023-02-11T22:13:16.137Z,99735.00
2023-02-11T22:16:24.198Z,99736.20
2023-02-11T22:19:34.259Z,99746.20
2023-02-11T22:22:42.150Z,99751.80
2023-02-11T22:25:50.053Z,99759.60
2023-02-11T22:28:59.105Z,99765.40
2023-02-11T22:32:07.557Z,99761.80
2023-02-11T22:35:15.881Z,99767.00
2023-02-11T22:38:24.084Z,99777.20
2023-02-11T22:41:32.351Z,99767.20
2023-02-11T22:44:40.115Z,99768.80
2023-02-11T22:47:48.001Z,99770.80
2023-02-11T22:51:00.920Z,99765.80
2023-02-11T22:54:13.672Z,99769.40
2023-02-11T22:57:21.477Z,99765.00
2023-02-11T23:00:37.467Z,99761.60
2023-02-11T23:03:45.964Z,99762.20
2023-02-11T23:06:53.718Z,99758.60
2023-02-11T23:10:02.031Z,99758.80
2023-02-11T23:13:11.549Z,99752.60
2023-02-11T23:16:22.772Z,99735.80
2023-02-11T23:19:30.855Z,99730.00
2023-02-11T23:22:38.737Z,99732.20
2023-02-11T23:25:50.015Z,99732.60
2023-02-11T23:28:59.086Z,99729.60
2023-02-11T23:32:07.429Z,99736.60
2023-02-11T23:35:22.068Z,99727.60
2023-02-11T23:38:30.300Z,99726.80
2023-02-11T23:41:38.061Z,99724.60
2023-02-11T23:44:45.958Z,99722.40
2023-02-11T23:47:53.759Z,99720.60
2023-02-11T23:51:02.191Z,99708.40
2023-02-11T23:54:11.936Z,99702.40
2023-02-11T23:57:20.693Z,99706.40
